Time;durP1;ratioP1;P1;durP2;ratioP2;P2;SDS_P1;SDS_P2;PMS_P1;PMS_P2;Temp;Humidity;BMP_temperature;BMP_pressure;BME280_temperature;BME280_humidity;BME280_pressure;Samples;Min_cycle;Max_cycle;Signal;HPM_P1;HPM_P2
2023/12/30 00:02:12;;;;;;;37.15;31.88;;;;;;;;;;4911670;29;20028;-79
2023/12/30 00:04:38;;;;;;;37.80;33.88;;;;;;;;;;4919793;28;20035;-79
2023/12/30 00:07:04;;;;;;;41.53;37.15;;;;;;;;;;4927500;28;20087;-78
2023/12/30 00:09:30;;;;;;;37.13;33.20;;;;;;;;;;4910369;29;20685;-79
2023/12/30 00:11:56;;;;;;;;;;;;;;;;;;4923904;28;20597;-79
2023/12/30 00:14:22;;;;;;;36.80;33.05;;;;;;;;;;4933253;28;19915;-78
2023/12/30 00:16:48;;;;;;;41.47;37.35;;;;;;;;;;4922868;28;20040;-77
2023/12/30 00:19:14;;;;;;;;;;;;;;;;;;4922908;29;20023;-78
2023/12/30 00:21:40;;;;;;;41.13;36.85;;;;;;;;;;4934505;28;19914;-78
2023/12/30 00:24:06;;;;;;;;;;;;;;;;;;4937634;28;20032;-78
2023/12/30 00:26:33;;;;;;;42.55;38.15;;;;;;;;;;4933798;28;19918;-78
2023/12/30 00:28:59;;;;;;;45.33;40.42;;;;;;;;;;4938869;28;20031;-79
2023/12/30 00:31:26;;;;;;;44.83;40.22;;;;;;;;;;4938229;28;20031;-78
2023/12/30 00:33:57;;;;;;;48.53;43.53;;;;;;;;;;4937811;28;20536;-78
2023/12/30 00:36:23;;;;;;;49.00;43.70;;;;;;;;;;4939180;28;20125;-78
2023/12/30 00:38:49;;;;;;;46.40;41.38;;;;;;;;;;4934649;28;20122;-78
2023/12/30 00:41:16;;;;;;;49.17;43.83;;;;;;;;;;4919885;29;20038;-77
2023/12/30 00:43:42;;;;;;;45.63;40.72;;;;;;;;;;4913446;28;20027;-78
2023/12/30 00:46:08;;;;;;;48.47;42.85;;;;;;;;;;4934367;28;20027;-77
2023/12/30 00:48:34;;;;;;;50.15;44.78;;;;;;;;;;4931951;28;20039;-80
2023/12/30 00:51:01;;;;;;;47.03;42.13;;;;;;;;;;4924282;29;20035;-80
2023/12/30 00:53:28;;;;;;;47.30;42.35;;;;;;;;;;4935167;28;20042;-80
2023/12/30 00:55:54;;;;;;;43.97;39.47;;;;;;;;;;4919406;28;20141;-80
2023/12/30 00:58:20;;;;;;;;;;;;;;;;;;4916481;29;20128;-80
2023/12/30 01:00:46;;;;;;;42.80;38.60;;;;;;;;;;4920073;28;20277;-80
2023/12/30 01:03:12;;;;;;;43.15;38.65;;;;;;;;;;4920968;29;20093;-80
2023/12/30 01:05:38;;;;;;;42.42;37.90;;;;;;;;;;4928948;28;20028;-80
2023/12/30 01:08:04;;;;;;;41.47;37.17;;;;;;;;;;4933011;28;20114;-80
2023/12/30 01:10:30;;;;;;;;;;;;;;;;;;4915845;29;20058;-80
2023/12/30 01:12:56;;;;;;;39.92;35.72;;;;;;;;;;4931884;28;20167;-80
2023/12/30 01:15:22;;;;;;;42.88;38.28;;;;;;;;;;4937259;28;20839;-80
2023/12/30 01:17:48;;;;;;;40.20;35.90;;;;;;;;;;4929535;28;20138;-80
2023/12/30 01:20:15;;;;;;;38.97;34.92;;;;;;;;;;4932550;28;20034;-80
2023/12/30 01:22:41;;;;;;;37.58;33.67;;;;;;;;;;4933373;28;20043;-80
2023/12/30 01:25:08;;;;;;;36.45;32.55;;;;;;;;;;4929806;28;20063;-80
2023/12/30 01:27:34;;;;;;;34.10;30.48;;;;;;;;;;4918802;28;20035;-80
2023/12/30 01:30:00;;;;;;;;;;;;;;;;;;4933080;28;20054;-80
2023/12/30 01:32:26;;;;;;;34.45;30.77;;;;;;;;;;4931068;28;20451;-80
2023/12/30 01:34:52;;;;;;;;;;;;;;;;;;4915638;28;20493;-80
2023/12/30 01:37:18;;;;;;;36.33;32.47;;;;;;;;;;4916026;29;19915;-80
2023/12/30 01:39:45;;;;;;;37.20;30.50;;;;;;;;;;4928527;28;20058;-80
2023/12/30 01:42:11;;;;;;;34.17;30.58;;;;;;;;;;4932829;28;20836;-80
2023/12/30 01:44:37;;;;;;;33.88;30.17;;;;;;;;;;4913617;28;20816;-80
2023/12/30 01:47:04;;;;;;;36.97;32.88;;;;;;;;;;4930413;28;20059;-80
2023/12/30 01:49:31;;;;;;;36.97;33.00;;;;;;;;;;4913389;29;20039;-79
2023/12/30 01:51:57;;;;;;;40.47;36.13;;;;;;;;;;4914052;28;20031;-81
2023/12/30 01:54:23;;;;;;;;;;;;;;;;;;4918287;29;20039;-81
2023/12/30 01:56:50;;;;;;;44.97;39.53;;;;;;;;;;4910127;28;19937;-81
2023/12/30 01:59:18;;;;;;;45.38;40.47;;;;;;;;;;4932176;28;20339;-81
2023/12/30 02:01:45;;;;;;;44.70;38.83;;;;;;;;;;4910740;28;20039;-81
2023/12/30 02:04:11;;;;;;;42.03;37.60;;;;;;;;;;4920491;29;20114;-81
2023/12/30 02:06:39;;;;;;;41.58;37.22;;;;;;;;;;4928528;28;20050;-81
2023/12/30 02:09:05;;;;;;;37.90;33.97;;;;;;;;;;4912186;29;20031;-81
2023/12/30 02:11:31;;;;;;;38.00;33.92;;;;;;;;;;4928316;28;20030;-81
2023/12/30 02:13:57;;;;;;;;;;;;;;;;;;4931378;28;20039;-81
2023/12/30 02:16:24;;;;;;;42.47;38.15;;;;;;;;;;4911967;29;20411;-79
2023/12/30 02:18:49;;;;;;;;;;;;;;;;;;4916451;28;20043;-80
2023/12/30 02:21:16;;;;;;;42.40;38.05;;;;;;;;;;4912508;29;19941;-81
2023/12/30 02:23:42;;;;;;;42.88;38.30;;;;;;;;;;4910553;28;20043;-80
2023/12/30 02:26:08;;;;;;;;;;;;;;;;;;4924673;28;20034;-80
2023/12/30 02:28:34;;;;;;;44.38;39.83;;;;;;;;;;4926258;28;19915;-80
2023/12/30 02:31:00;;;;;;;46.10;40.72;;;;;;;;;;4926902;28;20035;-80
2023/12/30 02:33:26;;;;;;;45.28;40.38;;;;;;;;;;4926749;28;20063;-80
2023/12/30 02:35:52;;;;;;;51.20;42.22;;;;;;;;;;4906245;28;20043;-80
2023/12/30 02:38:18;;;;;;;;;;;;;;;;;;4911581;29;20027;-81
2023/12/30 02:40:45;;;;;;;43.30;38.60;;;;;;;;;;4908569;28;19943;-80
2023/12/30 02:43:11;;;;;;;44.10;39.20;;;;;;;;;;4927160;28;20038;-80
2023/12/30 02:45:37;;;;;;;44.85;39.95;;;;;;;;;;4906188;28;20513;-81
2023/12/30 02:48:03;;;;;;;47.03;40.90;;;;;;;;;;4911332;29;20174;-80
2023/12/30 02:50:29;;;;;;;53.47;44.05;;;;;;;;;;4922236;28;20054;-79
2023/12/30 02:52:55;;;;;;;;;;;;;;;;;;4910993;28;20034;-80
2023/12/30 02:55:21;;;;;;;45.83;40.92;;;;;;;;;;4929697;28;19970;-79
2023/12/30 02:57:48;;;;;;;51.53;45.97;;;;;;;;;;4919423;28;20787;-79
2023/12/30 03:00:14;;;;;;;50.42;44.03;;;;;;;;;;4928646;28;20616;-80
2023/12/30 03:02:40;;;;;;;55.33;45.90;;;;;;;;;;4914809;28;20035;-80
2023/12/30 03:05:06;;;;;;;49.47;43.92;;;;;;;;;;4910736;29;20035;-80
2023/12/30 03:07:36;;;;;;;45.42;40.70;;;;;;;;;;4912740;28;20921;-80
2023/12/30 03:10:02;;;;;;;49.00;42.10;;;;;;;;;;4916345;29;20030;-80
2023/12/30 03:12:28;;;;;;;43.88;39.30;;;;;;;;;;4930542;28;20042;-80
2023/12/30 03:14:55;;;;;;;43.70;39.05;;;;;;;;;;4923034;28;20668;-79
2023/12/30 03:17:21;;;;;;;44.90;36.97;;;;;;;;;;4912591;29;20723;-79
2023/12/30 03:19:47;;;;;;;36.72;31.55;;;;;;;;;;4923346;28;20039;-80
2023/12/30 03:22:13;;;;;;;36.05;32.00;;;;;;;;;;4905172;29;20031;-80
2023/12/30 03:24:39;;;;;;;34.33;29.08;;;;;;;;;;4907129;28;20178;-79
2023/12/30 03:27:05;;;;;;;33.58;27.52;;;;;;;;;;4930117;28;20028;-81
2023/12/30 03:29:31;;;;;;;27.15;22.95;;;;;;;;;;4925632;28;20110;-81
2023/12/30 03:31:57;;;;;;;25.90;23.10;;;;;;;;;;4925979;28;20078;-80
2023/12/30 03:34:23;;;;;;;26.83;22.23;;;;;;;;;;4925013;28;20059;-80
2023/12/30 03:36:49;;;;;;;26.35;21.10;;;;;;;;;;4924757;28;20040;-80
2023/12/30 03:39:15;;;;;;;24.33;20.00;;;;;;;;;;4907743;29;20637;-80
2023/12/30 03:41:42;;;;;;;23.25;20.05;;;;;;;;;;4923022;28;20482;-80
2023/12/30 03:44:08;;;;;;;21.98;18.83;;;;;;;;;;4927499;28;20090;-80
2023/12/30 03:46:34;;;;;;;22.52;18.58;;;;;;;;;;4923804;28;20155;-80
2023/12/30 03:49:00;;;;;;;22.45;18.55;;;;;;;;;;4924059;28;20110;-81
2023/12/30 03:51:26;;;;;;;21.88;17.65;;;;;;;;;;4912337;29;20027;-80
2023/12/30 03:53:52;;;;;;;22.83;18.73;;;;;;;;;;4905228;28;20043;-80
2023/12/30 03:56:18;;;;;;;19.65;17.40;;;;;;;;;;4924477;28;20205;-80
2023/12/30 03:58:45;;;;;;;19.40;16.88;;;;;;;;;;4924270;28;20043;-80
2023/12/30 04:01:11;;;;;;;21.75;17.38;;;;;;;;;;4927510;28;20797;-80
2023/12/30 04:03:37;;;;;;;22.45;17.75;;;;;;;;;;4912391;28;20039;-80
2023/12/30 04:06:03;;;;;;;21.48;18.00;;;;;;;;;;4924157;28;20110;-79
2023/12/30 04:08:30;;;;;;;21.75;18.75;;;;;;;;;;4928682;28;20032;-80
2023/12/30 04:10:56;;;;;;;20.20;17.58;;;;;;;;;;4911128;28;20122;-80
2023/12/30 04:13:22;;;;;;;23.15;19.40;;;;;;;;;;4927568;28;20529;-79
2023/12/30 04:15:48;;;;;;;21.15;18.63;;;;;;;;;;4913020;28;20035;-79
2023/12/30 04:18:14;;;;;;;19.73;17.20;;;;;;;;;;4926842;28;20042;-79
2023/12/30 04:20:40;;;;;;;22.33;19.63;;;;;;;;;;4925608;28;20062;-79
2023/12/30 04:23:06;;;;;;;21.85;18.45;;;;;;;;;;4928538;28;20093;-81
2023/12/30 04:25:32;;;;;;;21.52;18.30;;;;;;;;;;4925583;28;20050;-79
2023/12/30 04:27:59;;;;;;;22.33;18.38;;;;;;;;;;4928901;28;20035;-80
2023/12/30 04:30:25;;;;;;;;;;;;;;;;;;4929038;28;20062;-80
2023/12/30 04:32:51;;;;;;;24.83;20.08;;;;;;;;;;4927787;28;20052;-80
2023/12/30 04:35:17;;;;;;;25.63;20.40;;;;;;;;;;4928335;28;20031;-80
2023/12/30 04:37:43;;;;;;;27.35;23.40;;;;;;;;;;4926462;28;20039;-80
2023/12/30 04:40:09;;;;;;;24.65;21.85;;;;;;;;;;4929650;28;20106;-79
2023/12/30 04:42:35;;;;;;;;;;;;;;;;;;4925747;28;20072;-80
2023/12/30 04:45:01;;;;;;;25.55;21.58;;;;;;;;;;4926119;28;20685;-81
2023/12/30 04:47:27;;;;;;;26.80;23.88;;;;;;;;;;4911675;29;20130;-80
2023/12/30 04:49:53;;;;;;;30.02;25.75;;;;;;;;;;4926970;28;20035;-80
2023/12/30 04:52:19;;;;;;;28.83;24.30;;;;;;;;;;4930825;28;20031;-80
2023/12/30 04:54:46;;;;;;;31.05;23.55;;;;;;;;;;4923518;28;20618;-80
2023/12/30 04:57:12;;;;;;;26.50;22.50;;;;;;;;;;4916199;29;20449;-80
2023/12/30 04:59:38;;;;;;;28.35;23.98;;;;;;;;;;4925007;28;20077;-80
2023/12/30 05:02:04;;;;;;;28.45;24.67;;;;;;;;;;4922742;28;20087;-80
2023/12/30 05:04:30;;;;;;;28.75;23.45;;;;;;;;;;4913120;29;20478;-82
2023/12/30 05:06:56;;;;;;;27.70;22.17;;;;;;;;;;4910841;29;20031;-80
2023/12/30 05:09:22;;;;;;;24.40;21.60;;;;;;;;;;4912757;29;20043;-81
2023/12/30 05:11:50;;;;;;;25.08;22.20;;;;;;;;;;4908296;28;20098;-80
2023/12/30 05:14:18;;;;;;;24.08;21.10;;;;;;;;;;4913437;29;20035;-79
2023/12/30 05:16:45;;;;;;;24.15;21.48;;;;;;;;;;4909469;28;20046;-79
2023/12/30 05:19:11;;;;;;;22.88;20.08;;;;;;;;;;4908851;29;20435;-79
2023/12/30 05:21:38;;;;;;;22.35;19.15;;;;;;;;;;4909057;28;20027;-79
2023/12/30 05:24:04;;;;;;;;;;;;;;;;;;4917941;28;20046;-79
2023/12/30 05:26:30;;;;;;;19.50;17.15;;;;;;;;;;4927501;28;20392;-80
2023/12/30 05:28:57;;;;;;;20.83;16.02;;;;;;;;;;4911857;28;20106;-80
2023/12/30 05:31:23;;;;;;;18.40;15.40;;;;;;;;;;4913041;29;20042;-79
2023/12/30 05:33:50;;;;;;;22.15;16.45;;;;;;;;;;4913481;28;20066;-79
2023/12/30 05:36:16;;;;;;;18.40;14.75;;;;;;;;;;4913156;29;20684;-79
2023/12/30 05:38:42;;;;;;;21.42;15.32;;;;;;;;;;4911408;28;20071;-79
2023/12/30 05:41:08;;;;;;;16.88;14.35;;;;;;;;;;4926410;28;20042;-79
2023/12/30 05:43:34;;;;;;;19.02;14.70;;;;;;;;;;4911311;28;20117;-79
2023/12/30 05:46:00;;;;;;;17.63;14.60;;;;;;;;;;4928139;28;20065;-79
2023/12/30 05:48:26;;;;;;;19.92;14.48;;;;;;;;;;4915245;29;20063;-79
2023/12/30 05:50:52;;;;;;;16.65;14.80;;;;;;;;;;4922630;28;21470;-79
2023/12/30 05:53:18;;;;;;;17.27;14.35;;;;;;;;;;4924502;28;20122;-79
2023/12/30 05:55:44;;;;;;;17.35;14.25;;;;;;;;;;4910774;28;20031;-80
2023/12/30 05:58:10;;;;;;;15.75;12.75;;;;;;;;;;4922677;28;20131;-79
2023/12/30 06:00:37;;;;;;;16.92;13.40;;;;;;;;;;4923744;28;20085;-79
2023/12/30 06:03:03;;;;;;;17.10;13.13;;;;;;;;;;4927825;28;20127;-79
2023/12/30 06:05:29;;;;;;;18.00;12.88;;;;;;;;;;4928019;28;20035;-81
2023/12/30 06:07:55;;;;;;;17.67;13.80;;;;;;;;;;4914606;28;20038;-78
2023/12/30 06:10:22;;;;;;;16.85;14.27;;;;;;;;;;4926319;28;20039;-79
2023/12/30 06:12:48;;;;;;;16.98;12.00;;;;;;;;;;4910780;28;20031;-80
2023/12/30 06:15:14;;;;;;;15.60;12.57;;;;;;;;;;4923450;28;20035;-79
2023/12/30 06:17:40;;;;;;;16.40;12.63;;;;;;;;;;4908617;28;20040;-79
2023/12/30 06:20:07;;;;;;;19.02;12.85;;;;;;;;;;4913778;29;20034;-80
2023/12/30 06:22:33;;;;;;;14.40;11.82;;;;;;;;;;4924015;28;20109;-80
2023/12/30 06:25:00;;;;;;;13.45;11.07;;;;;;;;;;4912384;29;20031;-80
2023/12/30 06:27:26;;;;;;;14.55;11.18;;;;;;;;;;4929998;28;20043;-80
2023/12/30 06:29:52;;;;;;;14.57;11.25;;;;;;;;;;4913115;28;24667;-80
2023/12/30 06:32:18;;;;;;;16.55;10.38;;;;;;;;;;4909845;29;20035;-79
2023/12/30 06:34:44;;;;;;;;;;;;;;;;;;4922430;28;20040;-80
2023/12/30 06:37:10;;;;;;;12.48;9.38;;;;;;;;;;4908167;29;20586;-80
2023/12/30 06:39:36;;;;;;;13.40;8.88;;;;;;;;;;4922756;28;20110;-80
2023/12/30 06:42:02;;;;;;;;;;;;;;;;;;4927197;28;20829;-79
2023/12/30 06:44:28;;;;;;;14.23;9.00;;;;;;;;;;4912116;29;19925;-79
2023/12/30 06:46:55;;;;;;;11.90;8.07;;;;;;;;;;4911784;28;20031;-79
2023/12/30 06:49:21;;;;;;;11.10;7.63;;;;;;;;;;4925595;28;20035;-79
2023/12/30 06:51:47;;;;;;;14.40;8.85;;;;;;;;;;4922641;28;20039;-80
2023/12/30 06:54:13;;;;;;;14.32;8.55;;;;;;;;;;4929174;28;20603;-80
2023/12/30 06:56:39;;;;;;;;;;;;;;;;;;4924745;28;20062;-79
2023/12/30 06:59:05;;;;;;;13.80;8.35;;;;;;;;;;4928386;28;19922;-79
2023/12/30 07:01:32;;;;;;;15.82;10.00;;;;;;;;;;4927193;28;20030;-79
2023/12/30 07:03:58;;;;;;;13.52;8.93;;;;;;;;;;4922855;28;20027;-80
2023/12/30 07:06:24;;;;;;;;;;;;;;;;;;4924279;28;20063;-79
2023/12/30 07:08:50;;;;;;;13.60;10.40;;;;;;;;;;4922785;28;21297;-80
2023/12/30 07:11:16;;;;;;;17.35;13.40;;;;;;;;;;4924121;28;20031;-81
2023/12/30 07:13:43;;;;;;;15.45;12.45;;;;;;;;;;4924819;28;20054;-81
2023/12/30 07:16:09;;;;;;;19.70;15.38;;;;;;;;;;4926336;28;20023;-79
2023/12/30 07:18:35;;;;;;;23.38;17.05;;;;;;;;;;4907605;28;20093;-78
2023/12/30 07:21:01;;;;;;;19.48;15.63;;;;;;;;;;4908211;29;20487;-78
2023/12/30 07:23:27;;;;;;;18.50;16.27;;;;;;;;;;4906646;29;20035;-79
2023/12/30 07:25:53;;;;;;;23.45;17.63;;;;;;;;;;4907678;28;20027;-78
2023/12/30 07:28:19;;;;;;;20.42;16.65;;;;;;;;;;4925694;28;20027;-78
2023/12/30 07:30:45;;;;;;;22.08;16.80;;;;;;;;;;4906629;28;20027;-79
2023/12/30 07:33:12;;;;;;;21.25;16.33;;;;;;;;;;4906553;29;20047;-78
2023/12/30 07:35:38;;;;;;;20.52;16.13;;;;;;;;;;4905791;28;20039;-79
2023/12/30 07:38:04;;;;;;;22.50;15.52;;;;;;;;;;4924762;28;20500;-80
2023/12/30 07:40:30;;;;;;;;;;;;;;;;;;4911618;28;20039;-81
2023/12/30 07:42:56;;;;;;;20.45;14.57;;;;;;;;;;4922973;28;19945;-80
2023/12/30 07:45:22;;;;;;;16.48;12.30;;;;;;;;;;4929029;28;20477;-82
2023/12/30 07:47:49;;;;;;;16.73;11.63;;;;;;;;;;4923747;28;20081;-81
2023/12/30 07:50:15;;;;;;;17.63;12.77;;;;;;;;;;4931097;28;20046;-81
2023/12/30 07:52:42;;;;;;;15.73;9.30;;;;;;;;;;4927722;28;20387;-81
2023/12/30 07:55:08;;;;;;;13.60;9.05;;;;;;;;;;4914782;29;20869;-81
2023/12/30 07:57:34;;;;;;;14.05;8.50;;;;;;;;;;4927416;28;20699;-81
2023/12/30 08:00:00;;;;;;;;;;;;;;;;;;4929782;28;20035;-81
2023/12/30 08:02:28;;;;;;;15.13;9.40;;;;;;;;;;4926835;28;19929;-81
2023/12/30 08:04:56;;;;;;;17.60;10.50;;;;;;;;;;4913556;28;20042;-81
2023/12/30 08:07:22;;;;;;;12.82;9.50;;;;;;;;;;4929723;28;20020;-82
2023/12/30 08:09:48;;;;;;;;;;;;;;;;;;4928420;28;20035;-82
2023/12/30 08:12:14;;;;;;;17.20;11.90;;;;;;;;;;4911963;29;20304;-81
2023/12/30 08:14:40;;;;;;;14.27;11.18;;;;;;;;;;4914378;28;20039;-82
2023/12/30 08:17:06;;;;;;;16.77;11.05;;;;;;;;;;4928561;28;20602;-81
2023/12/30 08:19:32;;;;;;;16.17;10.27;;;;;;;;;;4921972;28;20047;-81
2023/12/30 08:21:58;;;;;;;15.60;11.15;;;;;;;;;;4928059;28;20035;-81
2023/12/30 08:24:28;;;;;;;15.93;9.70;;;;;;;;;;4930403;28;20024;-81
2023/12/30 08:26:54;;;;;;;14.93;10.65;;;;;;;;;;4916193;28;20042;-81
2023/12/30 08:29:20;;;;;;;14.52;9.43;;;;;;;;;;4927512;28;20267;-82
2023/12/30 08:31:46;;;;;;;19.10;11.98;;;;;;;;;;4906471;28;20526;-82
2023/12/30 08:34:16;;;;;;;17.85;10.48;;;;;;;;;;4929357;28;20058;-81
2023/12/30 08:36:42;;;;;;;13.57;9.07;;;;;;;;;;4910488;28;20094;-81
2023/12/30 08:39:09;;;;;;;14.43;9.38;;;;;;;;;;4927664;28;20031;-81
2023/12/30 08:41:35;;;;;;;;;;;;;;;;;;4926639;28;20071;-81
2023/12/30 08:44:02;;;;;;;16.42;9.25;;;;;;;;;;4909407;29;19922;-82
2023/12/30 08:46:28;;;;;;;13.07;8.88;;;;;;;;;;4915637;29;20661;-81
2023/12/30 08:48:54;;;;;;;16.23;8.30;;;;;;;;;;4918980;28;20031;-81
2023/12/30 08:51:22;;;;;;;14.50;10.35;;;;;;;;;;4935106;28;20031;-81
2023/12/30 08:53:48;;;;;;;13.05;8.50;;;;;;;;;;4925745;28;20130;-81
2023/12/30 08:56:14;;;;;;;;;;;;;;;;;;4911332;29;20031;-82
2023/12/30 08:58:40;;;;;;;17.88;11.90;;;;;;;;;;4929298;28;19966;-81
2023/12/30 09:01:06;;;;;;;;;;;;;;;;;;4930417;28;20624;-81
2023/12/30 09:03:32;;;;;;;16.00;11.10;;;;;;;;;;4913086;28;20702;-81
2023/12/30 09:05:58;;;;;;;16.50;11.15;;;;;;;;;;4930814;28;20792;-82
2023/12/30 09:08:25;;;;;;;15.60;11.40;;;;;;;;;;4928745;28;20055;-81
2023/12/30 09:10:51;;;;;;;17.45;11.35;;;;;;;;;;4924331;28;20023;-81
2023/12/30 09:13:17;;;;;;;;;;;;;;;;;;4931153;28;20069;-81
2023/12/30 09:15:43;;;;;;;18.20;10.60;;;;;;;;;;4910058;28;20001;-82
2023/12/30 09:18:09;;;;;;;16.38;11.32;;;;;;;;;;4915238;29;20046;-80
2023/12/30 09:20:35;;;;;;;;;;;;;;;;;;4910922;28;20041;-81
2023/12/30 09:23:01;;;;;;;18.90;12.10;;;;;;;;;;4913960;28;19922;-81
2023/12/30 09:25:28;;;;;;;;;;;;;;;;;;4917004;29;20075;-80
2023/12/30 09:27:54;;;;;;;19.63;12.98;;;;;;;;;;4927524;28;19915;-81
2023/12/30 09:30:20;;;;;;;18.20;11.50;;;;;;;;;;4927209;28;20050;-80
2023/12/30 09:32:46;;;;;;;;;;;;;;;;;;4924314;28;20062;-81
2023/12/30 09:35:12;;;;;;;15.48;12.05;;;;;;;;;;4913481;29;19919;-82
2023/12/30 09:37:39;;;;;;;16.27;11.77;;;;;;;;;;4907890;28;20153;-80
2023/12/30 09:40:05;;;;;;;17.85;12.95;;;;;;;;;;4926950;28;20887;-80
2023/12/30 09:42:31;;;;;;;16.58;11.93;;;;;;;;;;4920837;28;20562;-80
2023/12/30 09:44:59;;;;;;;16.42;12.23;;;;;;;;;;4925175;28;20035;-81
2023/12/30 09:47:26;;;;;;;18.52;13.75;;;;;;;;;;4912652;29;20032;-80
2023/12/30 09:49:52;;;;;;;18.70;13.60;;;;;;;;;;4925816;28;20035;-80
2023/12/30 09:52:18;;;;;;;15.93;10.90;;;;;;;;;;4930775;28;20033;-81
2023/12/30 09:54:44;;;;;;;16.30;12.27;;;;;;;;;;4927866;28;20039;-81
2023/12/30 09:57:11;;;;;;;16.25;12.15;;;;;;;;;;4929151;28;20067;-81
2023/12/30 09:59:38;;;;;;;16.10;10.93;;;;;;;;;;4910354;28;20043;-82
2023/12/30 10:02:06;;;;;;;15.68;11.85;;;;;;;;;;4929491;28;20046;-83
2023/12/30 10:04:33;;;;;;;18.25;12.95;;;;;;;;;;4924730;28;20034;-83
2023/12/30 10:06:59;;;;;;;17.95;13.27;;;;;;;;;;4925498;28;20126;-80
2023/12/30 10:09:25;;;;;;;17.13;14.05;;;;;;;;;;4927644;28;20050;-82
2023/12/30 10:11:51;;;;;;;20.52;14.50;;;;;;;;;;4926343;28;20046;-83
2023/12/30 10:14:17;;;;;;;18.65;13.70;;;;;;;;;;4922147;28;20086;-82
2023/12/30 10:16:43;;;;;;;;;;;;;;;;;;4923432;28;20050;-81
2023/12/30 10:19:10;;;;;;;18.77;14.38;;;;;;;;;;4929859;28;19914;-81
2023/12/30 10:21:39;;;;;;;19.00;14.73;;;;;;;;;;4923775;28;20114;-82
2023/12/30 10:24:05;;;;;;;18.23;15.15;;;;;;;;;;4927055;28;20039;-83
2023/12/30 10:26:33;;;;;;;19.25;15.30;;;;;;;;;;4927995;28;20038;-81
2023/12/30 10:28:59;;;;;;;21.42;16.17;;;;;;;;;;4930715;28;20038;-81
2023/12/30 10:31:25;;;;;;;22.17;17.75;;;;;;;;;;4924926;28;20023;-81
2023/12/30 10:33:53;;;;;;;19.52;16.50;;;;;;;;;;4923761;28;20857;-82
2023/12/30 10:36:19;;;;;;;21.00;16.02;;;;;;;;;;4926263;28;20033;-82
2023/12/30 10:38:46;;;;;;;20.00;16.92;;;;;;;;;;4924141;28;20035;-80
2023/12/30 10:41:12;;;;;;;22.55;18.50;;;;;;;;;;4924630;28;21986;-83
2023/12/30 10:43:39;;;;;;;22.88;17.90;;;;;;;;;;4926626;28;20047;-82
2023/12/30 10:46:10;;;;;;;19.75;15.63;;;;;;;;;;4924377;28;20027;-83
2023/12/30 10:48:38;;;;;;;19.08;15.88;;;;;;;;;;4918838;28;20043;-81
2023/12/30 10:51:04;;;;;;;19.05;14.60;;;;;;;;;;4926746;28;20039;-81
2023/12/30 10:53:30;;;;;;;;;;;;;;;;;;4927059;28;20040;-82
2023/12/30 10:56:03;;;;;;;17.85;14.52;;;;;;;;;;4926618;28;20317;-81
2023/12/30 10:58:35;;;;;;;18.23;13.57;;;;;;;;;;4914492;29;20105;-81
2023/12/30 11:01:01;;;;;;;20.50;17.00;;;;;;;;;;4928844;28;20031;-82
2023/12/30 11:03:29;;;;;;;19.70;15.18;;;;;;;;;;4925804;28;20042;-83
2023/12/30 11:05:55;;;;;;;18.40;14.18;;;;;;;;;;4907476;28;20027;-81
2023/12/30 11:08:21;;;;;;;;;;;;;;;;;;4927121;28;20083;-81
2023/12/30 11:10:47;;;;;;;17.45;15.55;;;;;;;;;;4923140;28;20026;-81
2023/12/30 11:13:13;;;;;;;;;;;;;;;;;;4926879;28;20769;-81
2023/12/30 11:15:39;;;;;;;18.70;15.15;;;;;;;;;;4920762;28;19918;-82
2023/12/30 11:18:06;;;;;;;20.08;15.93;;;;;;;;;;4911470;28;20114;-83
2023/12/30 11:20:32;;;;;;;;;;;;;;;;;;4922694;28;20074;-83
2023/12/30 11:23:02;;;;;;;18.90;14.23;;;;;;;;;;4927126;28;20009;-83
2023/12/30 11:25:34;;;;;;;19.30;15.02;;;;;;;;;;4925809;28;20687;-83
2023/12/30 11:28:13;;;;;;;20.17;15.20;;;;;;;;;;4924751;28;20031;-82
2023/12/30 11:30:40;;;;;;;18.08;15.65;;;;;;;;;;4903015;28;20024;-82
2023/12/30 11:33:06;;;;;;;15.15;11.55;;;;;;;;;;4927747;28;20102;-83
2023/12/30 11:35:32;;;;;;;;;;;;;;;;;;4911505;28;20599;-83
2023/12/30 11:38:00;;;;;;;15.93;12.60;;;;;;;;;;4926387;28;19918;-83
2023/12/30 11:40:28;;;;;;;21.20;16.13;;;;;;;;;;4924706;28;20058;-81
2023/12/30 11:42:54;;;;;;;20.13;14.30;;;;;;;;;;4922169;28;20035;-83
2023/12/30 11:45:21;;;;;;;17.33;13.60;;;;;;;;;;4912707;29;20039;-80
2023/12/30 11:47:48;;;;;;;19.13;15.00;;;;;;;;;;4907927;28;20058;-82
2023/12/30 11:50:14;;;;;;;;;;;;;;;;;;4914319;29;20030;-82
2023/12/30 11:52:49;;;;;;;17.40;14.45;;;;;;;;;;4903318;28;19922;-83
2023/12/30 11:55:15;;;;;;;21.13;16.02;;;;;;;;;;4906289;29;20040;-83
2023/12/30 11:57:42;;;;;;;19.00;15.40;;;;;;;;;;4905246;28;20124;-83
2023/12/30 12:00:08;;;;;;;;;;;;;;;;;;4906697;29;20053;-83
2023/12/30 12:02:34;;;;;;;13.77;10.88;;;;;;;;;;4906666;28;21382;-80
2023/12/30 12:05:01;;;;;;;17.95;13.15;;;;;;;;;;4908574;29;20052;-83
2023/12/30 12:07:27;;;;;;;15.77;12.27;;;;;;;;;;4927515;28;20027;-81
2023/12/30 12:09:53;;;;;;;;;;;;;;;;;;4924719;28;20406;-82
2023/12/30 12:12:23;;;;;;;20.13;17.30;;;;;;;;;;4909337;29;19910;-83
2023/12/30 12:14:50;;;;;;;19.10;15.02;;;;;;;;;;4913283;28;20502;-83
2023/12/30 12:17:16;;;;;;;23.50;17.55;;;;;;;;;;4937087;28;20034;-82
2023/12/30 12:19:42;;;;;;;22.88;19.15;;;;;;;;;;4924805;28;20043;-82
2023/12/30 12:22:08;;;;;;;;;;;;;;;;;;4928918;28;20130;-82
2023/12/30 12:24:34;;;;;;;19.25;15.45;;;;;;;;;;4924396;28;19915;-82
2023/12/30 12:27:00;;;;;;;18.15;14.23;;;;;;;;;;4910377;29;20742;-82
2023/12/30 12:29:26;;;;;;;17.65;15.07;;;;;;;;;;4910493;28;20035;-83
2023/12/30 12:31:52;;;;;;;;;;;;;;;;;;4912771;28;20043;-83
2023/12/30 12:34:22;;;;;;;18.23;14.75;;;;;;;;;;4928167;28;19973;-83
2023/12/30 12:36:48;;;;;;;22.30;15.57;;;;;;;;;;4911224;28;20035;-83
2023/12/30 12:39:14;;;;;;;;;;;;;;;;;;4914198;29;20677;-83
2023/12/30 12:41:40;;;;;;;22.42;17.25;;;;;;;;;;4927407;28;19999;-83
2023/12/30 12:44:06;;;;;;;;;;;;;;;;;;4917502;29;20035;-83
2023/12/30 12:46:32;;;;;;;22.58;18.52;;;;;;;;;;4908439;28;19988;-81
2023/12/30 12:49:02;;;;;;;23.77;18.77;;;;;;;;;;4930296;28;20045;-82
2023/12/30 12:51:29;;;;;;;22.15;17.88;;;;;;;;;;4908715;29;20062;-82
2023/12/30 12:53:55;;;;;;;18.40;14.93;;;;;;;;;;4926992;28;20035;-82
2023/12/30 12:56:21;;;;;;;24.73;17.73;;;;;;;;;;4914713;29;20035;-82
2023/12/30 12:58:47;;;;;;;;;;;;;;;;;;4926863;28;20126;-81
2023/12/30 13:01:13;;;;;;;17.83;14.20;;;;;;;;;;4925754;28;19921;-81
2023/12/30 13:03:39;;;;;;;;;;;;;;;;;;4928302;28;20517;-81
2023/12/30 13:06:12;;;;;;;18.60;14.48;;;;;;;;;;4927301;28;19914;-80
2023/12/30 13:08:39;;;;;;;20.80;16.88;;;;;;;;;;4922639;28;20505;-81
2023/12/30 13:11:05;;;;;;;21.00;15.93;;;;;;;;;;4916127;29;20031;-81
2023/12/30 13:13:31;;;;;;;22.05;17.77;;;;;;;;;;4926919;28;20027;-81
2023/12/30 13:16:00;;;;;;;20.42;14.90;;;;;;;;;;4911676;28;20077;-81
2023/12/30 13:18:28;;;;;;;17.55;13.43;;;;;;;;;;4912511;29;20061;-80
2023/12/30 13:20:58;;;;;;;19.20;15.13;;;;;;;;;;4924929;28;20031;-82
2023/12/30 13:23:24;;;;;;;21.20;15.73;;;;;;;;;;4893477;29;20031;-80
2023/12/30 13:25:51;;;;;;;23.70;16.73;;;;;;;;;;4908235;28;20098;-79
2023/12/30 13:28:17;;;;;;;21.10;15.80;;;;;;;;;;4910004;29;20141;-80
2023/12/30 13:30:46;;;;;;;20.77;15.05;;;;;;;;;;4925323;28;20047;-82
2023/12/30 13:33:16;;;;;;;21.45;16.77;;;;;;;;;;4915025;29;20043;-81
2023/12/30 13:35:42;;;;;;;19.25;15.40;;;;;;;;;;4922247;28;20159;-82
2023/12/30 13:38:12;;;;;;;20.48;16.10;;;;;;;;;;4909763;29;20024;-81
2023/12/30 13:40:42;;;;;;;21.30;16.30;;;;;;;;;;4911290;28;20145;-79
2023/12/30 13:43:09;;;;;;;20.42;14.20;;;;;;;;;;4905578;29;20031;-80
2023/12/30 13:45:48;;;;;;;19.30;14.20;;;;;;;;;;4924215;28;20590;-80
2023/12/30 13:48:56;;;;;;;18.00;13.23;;;;;;;;;;4910402;29;20027;-79
2023/12/30 13:51:11;;;;;;;16.27;12.38;;;;;;;;;;4925398;28;20158;-80
2023/12/30 13:53:38;;;;;;;16.85;12.40;;;;;;;;;;4912771;28;20043;-80
2023/12/30 13:56:06;;;;;;;20.00;14.57;;;;;;;;;;4913266;29;20058;-80
2023/12/30 13:58:32;;;;;;;17.40;13.25;;;;;;;;;;4928110;28;20078;-79
2023/12/30 14:00:59;;;;;;;20.58;15.00;;;;;;;;;;4915178;29;20114;-80
2023/12/30 14:03:27;;;;;;;21.55;15.27;;;;;;;;;;4917016;29;20031;-79
2023/12/30 14:05:53;;;;;;;20.25;16.45;;;;;;;;;;4916083;28;20054;-80
2023/12/30 14:08:36;;;;;;;21.65;14.65;;;;;;;;;;4928201;28;20019;-79
2023/12/30 14:11:07;;;;;;;20.38;15.15;;;;;;;;;;4928134;28;20047;-81
2023/12/30 14:13:34;;;;;;;21.38;15.43;;;;;;;;;;4908073;28;20067;-79
2023/12/30 14:16:00;;;;;;;16.27;13.15;;;;;;;;;;4908623;29;20109;-80
2023/12/30 14:18:26;;;;;;;19.30;13.52;;;;;;;;;;4926946;28;20035;-80
2023/12/30 14:20:53;;;;;;;22.35;13.07;;;;;;;;;;4904064;28;20098;-80
2023/12/30 14:23:19;;;;;;;19.40;13.43;;;;;;;;;;4927760;28;20170;-80
2023/12/30 14:25:45;;;;;;;17.48;12.32;;;;;;;;;;4925388;28;20046;-79
2023/12/30 14:28:12;;;;;;;17.08;11.95;;;;;;;;;;4932800;28;20059;-80
2023/12/30 14:30:38;;;;;;;16.67;11.98;;;;;;;;;;4923503;28;20040;-80